sensor_id;sensor_type;location;lat;lon;timestamp;P1;durP1;ratioP1;P2;durP2;ratioP2
66669;SDS011;53568;52.164;4.472;2023-07-31T00:02:22;8.59;;;7.27;;
66669;SDS011;53568;52.164;4.472;2023-07-31T00:04:47;8.98;;;7.63;;
66669;SDS011;53568;52.164;4.472;2023-07-31T00:07:14;8.91;;;7.43;;
66669;SDS011;53568;52.164;4.472;2023-07-31T00:09:40;9.09;;;7.47;;
66669;SDS011;53568;52.164;4.472;2023-07-31T00:12:05;9.28;;;7.39;;
66669;SDS011;53568;52.164;4.472;2023-07-31T00:14:31;9.47;;;7.57;;
66669;SDS011;53568;52.164;4.472;2023-07-31T00:16:56;8.06;;;6.58;;
66669;SDS011;53568;52.164;4.472;2023-07-31T00:19:22;7.43;;;6.02;;
66669;SDS011;53568;52.164;4.472;2023-07-31T00:21:48;7.67;;;6.21;;
66669;SDS011;53568;52.164;4.472;2023-07-31T00:24:14;6.94;;;5.65;;
66669;SDS011;53568;52.164;4.472;2023-07-31T00:26:39;6.09;;;5.06;;
66669;SDS011;53568;52.164;4.472;2023-07-31T00:29:05;6.59;;;5.43;;
66669;SDS011;53568;52.164;4.472;2023-07-31T00:31:30;6.58;;;5.39;;
66669;SDS011;53568;52.164;4.472;2023-07-31T00:33:56;6.63;;;5.49;;
66669;SDS011;53568;52.164;4.472;2023-07-31T00:36:22;7.49;;;6.15;;
66669;SDS011;53568;52.164;4.472;2023-07-31T00:38:47;7.94;;;6.69;;
66669;SDS011;53568;52.164;4.472;2023-07-31T00:41:13;8.32;;;7.00;;
66669;SDS011;53568;52.164;4.472;2023-07-31T00:43:38;8.80;;;7.39;;
66669;SDS011;53568;52.164;4.472;2023-07-31T00:46:04;9.73;;;8.10;;
66669;SDS011;53568;52.164;4.472;2023-07-31T00:48:30;9.88;;;8.14;;
66669;SDS011;53568;52.164;4.472;2023-07-31T00:50:57;9.70;;;7.98;;
66669;SDS011;53568;52.164;4.472;2023-07-31T00:53:24;10.15;;;8.25;;
66669;SDS011;53568;52.164;4.472;2023-07-31T00:55:50;10.70;;;8.70;;
66669;SDS011;53568;52.164;4.472;2023-07-31T00:58:16;10.85;;;8.69;;
66669;SDS011;53568;52.164;4.472;2023-07-31T01:00:41;10.57;;;8.52;;
66669;SDS011;53568;52.164;4.472;2023-07-31T01:03:07;9.99;;;8.01;;
66669;SDS011;53568;52.164;4.472;2023-07-31T01:05:55;9.63;;;8.12;;
66669;SDS011;53568;52.164;4.472;2023-07-31T01:08:53;9.08;;;7.89;;
66669;SDS011;53568;52.164;4.472;2023-07-31T01:11:28;8.75;;;7.60;;
66669;SDS011;53568;52.164;4.472;2023-07-31T01:13:56;9.52;;;7.98;;
66669;SDS011;53568;52.164;4.472;2023-07-31T01:16:23;9.64;;;8.08;;
66669;SDS011;53568;52.164;4.472;2023-07-31T01:18:50;9.04;;;7.82;;
66669;SDS011;53568;52.164;4.472;2023-07-31T01:21:21;9.88;;;8.42;;
66669;SDS011;53568;52.164;4.472;2023-07-31T01:24:15;9.83;;;8.42;;
66669;SDS011;53568;52.164;4.472;2023-07-31T01:27:02;10.98;;;9.21;;
66669;SDS011;53568;52.164;4.472;2023-07-31T01:32:06;11.01;;;9.25;;
66669;SDS011;53568;52.164;4.472;2023-07-31T01:34:34;11.65;;;9.64;;
66669;SDS011;53568;52.164;4.472;2023-07-31T01:37:02;11.83;;;9.78;;
66669;SDS011;53568;52.164;4.472;2023-07-31T01:39:28;11.24;;;9.41;;
66669;SDS011;53568;52.164;4.472;2023-07-31T01:41:53;11.50;;;9.42;;
66669;SDS011;53568;52.164;4.472;2023-07-31T01:44:19;12.35;;;10.10;;
66669;SDS011;53568;52.164;4.472;2023-07-31T01:46:44;10.80;;;9.15;;
66669;SDS011;53568;52.164;4.472;2023-07-31T01:49:10;9.92;;;8.52;;
66669;SDS011;53568;52.164;4.472;2023-07-31T01:51:35;10.31;;;9.08;;
66669;SDS011;53568;52.164;4.472;2023-07-31T01:54:01;10.53;;;9.11;;
66669;SDS011;53568;52.164;4.472;2023-07-31T01:56:27;10.07;;;8.55;;
66669;SDS011;53568;52.164;4.472;2023-07-31T01:58:52;10.20;;;8.65;;
66669;SDS011;53568;52.164;4.472;2023-07-31T02:01:18;10.50;;;8.93;;
66669;SDS011;53568;52.164;4.472;2023-07-31T02:03:43;11.17;;;9.26;;
66669;SDS011;53568;52.164;4.472;2023-07-31T02:06:09;10.69;;;8.76;;
66669;SDS011;53568;52.164;4.472;2023-07-31T02:08:34;10.80;;;8.79;;
66669;SDS011;53568;52.164;4.472;2023-07-31T02:11:00;10.25;;;8.49;;
66669;SDS011;53568;52.164;4.472;2023-07-31T02:13:25;10.60;;;8.64;;
66669;SDS011;53568;52.164;4.472;2023-07-31T02:15:51;11.26;;;9.08;;
66669;SDS011;53568;52.164;4.472;2023-07-31T02:18:16;10.45;;;8.67;;
66669;SDS011;53568;52.164;4.472;2023-07-31T02:20:42;9.81;;;8.44;;
66669;SDS011;53568;52.164;4.472;2023-07-31T02:23:08;10.28;;;8.52;;
66669;SDS011;53568;52.164;4.472;2023-07-31T02:25:33;11.07;;;8.92;;
66669;SDS011;53568;52.164;4.472;2023-07-31T02:27:59;11.12;;;9.04;;
66669;SDS011;53568;52.164;4.472;2023-07-31T02:30:24;10.71;;;8.94;;
66669;SDS011;53568;52.164;4.472;2023-07-31T02:32:50;10.66;;;8.97;;
66669;SDS011;53568;52.164;4.472;2023-07-31T02:35:16;11.09;;;9.26;;
66669;SDS011;53568;52.164;4.472;2023-07-31T02:37:42;11.33;;;9.38;;
66669;SDS011;53568;52.164;4.472;2023-07-31T02:40:08;11.11;;;9.25;;
66669;SDS011;53568;52.164;4.472;2023-07-31T02:42:34;12.21;;;9.75;;
66669;SDS011;53568;52.164;4.472;2023-07-31T02:44:59;12.32;;;9.83;;
66669;SDS011;53568;52.164;4.472;2023-07-31T02:47:25;11.78;;;9.55;;
66669;SDS011;53568;52.164;4.472;2023-07-31T02:49:50;11.74;;;9.49;;
66669;SDS011;53568;52.164;4.472;2023-07-31T02:52:16;11.77;;;9.60;;
66669;SDS011;53568;52.164;4.472;2023-07-31T02:54:41;10.55;;;8.95;;
66669;SDS011;53568;52.164;4.472;2023-07-31T02:57:07;11.66;;;9.64;;
66669;SDS011;53568;52.164;4.472;2023-07-31T02:59:32;11.04;;;9.23;;
66669;SDS011;53568;52.164;4.472;2023-07-31T03:01:58;10.67;;;8.87;;
66669;SDS011;53568;52.164;4.472;2023-07-31T03:04:23;11.29;;;9.33;;
66669;SDS011;53568;52.164;4.472;2023-07-31T03:06:49;12.13;;;9.95;;
66669;SDS011;53568;52.164;4.472;2023-07-31T03:09:14;11.99;;;9.79;;
66669;SDS011;53568;52.164;4.472;2023-07-31T03:11:40;12.06;;;9.80;;
66669;SDS011;53568;52.164;4.472;2023-07-31T03:14:05;13.40;;;10.43;;
66669;SDS011;53568;52.164;4.472;2023-07-31T03:16:31;12.55;;;9.97;;
66669;SDS011;53568;52.164;4.472;2023-07-31T03:18:56;11.36;;;9.33;;
66669;SDS011;53568;52.164;4.472;2023-07-31T03:21:22;12.64;;;10.12;;
66669;SDS011;53568;52.164;4.472;2023-07-31T03:23:48;11.88;;;9.58;;
66669;SDS011;53568;52.164;4.472;2023-07-31T03:26:14;12.21;;;9.84;;
66669;SDS011;53568;52.164;4.472;2023-07-31T03:28:39;12.64;;;10.02;;
66669;SDS011;53568;52.164;4.472;2023-07-31T03:31:05;12.64;;;9.95;;
66669;SDS011;53568;52.164;4.472;2023-07-31T03:33:30;11.10;;;9.16;;
66669;SDS011;53568;52.164;4.472;2023-07-31T03:35:56;11.18;;;9.23;;
66669;SDS011;53568;52.164;4.472;2023-07-31T03:38:22;11.35;;;9.29;;
66669;SDS011;53568;52.164;4.472;2023-07-31T03:40:47;11.36;;;9.43;;
66669;SDS011;53568;52.164;4.472;2023-07-31T03:43:13;10.63;;;8.71;;
66669;SDS011;53568;52.164;4.472;2023-07-31T03:45:38;11.28;;;9.15;;
66669;SDS011;53568;52.164;4.472;2023-07-31T03:48:04;11.30;;;9.27;;
66669;SDS011;53568;52.164;4.472;2023-07-31T03:50:30;10.62;;;8.96;;
66669;SDS011;53568;52.164;4.472;2023-07-31T03:52:55;9.83;;;8.33;;
66669;SDS011;53568;52.164;4.472;2023-07-31T03:55:21;10.83;;;8.89;;
66669;SDS011;53568;52.164;4.472;2023-07-31T03:57:47;10.00;;;8.49;;
66669;SDS011;53568;52.164;4.472;2023-07-31T04:00:12;8.72;;;7.51;;
66669;SDS011;53568;52.164;4.472;2023-07-31T04:02:38;7.13;;;6.15;;
66669;SDS011;53568;52.164;4.472;2023-07-31T04:05:04;5.59;;;4.93;;
66669;SDS011;53568;52.164;4.472;2023-07-31T04:07:29;5.68;;;5.06;;
66669;SDS011;53568;52.164;4.472;2023-07-31T04:09:55;5.01;;;4.47;;
66669;SDS011;53568;52.164;4.472;2023-07-31T04:12:22;5.25;;;4.59;;
66669;SDS011;53568;52.164;4.472;2023-07-31T04:14:47;4.79;;;4.28;;
66669;SDS011;53568;52.164;4.472;2023-07-31T04:17:13;4.14;;;3.79;;
66669;SDS011;53568;52.164;4.472;2023-07-31T04:19:38;4.49;;;4.04;;
66669;SDS011;53568;52.164;4.472;2023-07-31T04:22:04;4.18;;;3.74;;
66669;SDS011;53568;52.164;4.472;2023-07-31T04:24:29;4.01;;;3.65;;
66669;SDS011;53568;52.164;4.472;2023-07-31T04:26:55;3.82;;;3.50;;
66669;SDS011;53568;52.164;4.472;2023-07-31T04:29:21;3.15;;;2.93;;
66669;SDS011;53568;52.164;4.472;2023-07-31T04:31:47;2.66;;;2.50;;
66669;SDS011;53568;52.164;4.472;2023-07-31T04:34:13;2.72;;;2.51;;
66669;SDS011;53568;52.164;4.472;2023-07-31T04:36:39;2.29;;;2.09;;
66669;SDS011;53568;52.164;4.472;2023-07-31T04:39:05;2.28;;;2.10;;
66669;SDS011;53568;52.164;4.472;2023-07-31T04:41:30;1.90;;;1.75;;
66669;SDS011;53568;52.164;4.472;2023-07-31T04:43:56;1.86;;;1.70;;
66669;SDS011;53568;52.164;4.472;2023-07-31T04:46:21;2.05;;;1.85;;
66669;SDS011;53568;52.164;4.472;2023-07-31T04:48:47;2.00;;;1.80;;
66669;SDS011;53568;52.164;4.472;2023-07-31T04:51:12;1.70;;;1.54;;
66669;SDS011;53568;52.164;4.472;2023-07-31T04:53:38;1.63;;;1.43;;
66669;SDS011;53568;52.164;4.472;2023-07-31T04:56:04;1.47;;;1.26;;
66669;SDS011;53568;52.164;4.472;2023-07-31T04:58:29;1.41;;;1.22;;
66669;SDS011;53568;52.164;4.472;2023-07-31T05:00:55;1.44;;;1.24;;
66669;SDS011;53568;52.164;4.472;2023-07-31T05:03:20;1.36;;;1.14;;
66669;SDS011;53568;52.164;4.472;2023-07-31T05:05:46;1.25;;;1.05;;
66669;SDS011;53568;52.164;4.472;2023-07-31T05:08:11;1.65;;;1.37;;
66669;SDS011;53568;52.164;4.472;2023-07-31T05:10:37;1.33;;;1.12;;
66669;SDS011;53568;52.164;4.472;2023-07-31T05:13:02;1.46;;;1.26;;
66669;SDS011;53568;52.164;4.472;2023-07-31T05:15:28;1.49;;;1.29;;
66669;SDS011;53568;52.164;4.472;2023-07-31T05:17:54;1.31;;;1.13;;
66669;SDS011;53568;52.164;4.472;2023-07-31T05:20:20;1.39;;;1.22;;
66669;SDS011;53568;52.164;4.472;2023-07-31T05:22:46;1.69;;;1.49;;
66669;SDS011;53568;52.164;4.472;2023-07-31T05:25:11;1.40;;;1.25;;
66669;SDS011;53568;52.164;4.472;2023-07-31T05:27:37;1.40;;;1.26;;
66669;SDS011;53568;52.164;4.472;2023-07-31T05:30:03;1.49;;;1.35;;
66669;SDS011;53568;52.164;4.472;2023-07-31T05:32:29;1.74;;;1.62;;
66669;SDS011;53568;52.164;4.472;2023-07-31T05:34:55;1.33;;;1.27;;
66669;SDS011;53568;52.164;4.472;2023-07-31T05:37:21;1.16;;;1.11;;
66669;SDS011;53568;52.164;4.472;2023-07-31T05:39:47;1.14;;;1.10;;
66669;SDS011;53568;52.164;4.472;2023-07-31T05:42:13;1.04;;;1.01;;
66669;SDS011;53568;52.164;4.472;2023-07-31T05:44:38;1.21;;;1.17;;
66669;SDS011;53568;52.164;4.472;2023-07-31T05:47:04;1.66;;;1.62;;
66669;SDS011;53568;52.164;4.472;2023-07-31T05:49:30;1.24;;;1.21;;
66669;SDS011;53568;52.164;4.472;2023-07-31T05:51:55;1.13;;;1.10;;
66669;SDS011;53568;52.164;4.472;2023-07-31T05:54:21;1.24;;;1.21;;
66669;SDS011;53568;52.164;4.472;2023-07-31T05:56:46;1.59;;;1.58;;
66669;SDS011;53568;52.164;4.472;2023-07-31T05:59:12;1.09;;;1.09;;
66669;SDS011;53568;52.164;4.472;2023-07-31T06:01:38;1.21;;;1.20;;
66669;SDS011;53568;52.164;4.472;2023-07-31T06:04:04;1.08;;;1.08;;
66669;SDS011;53568;52.164;4.472;2023-07-31T06:06:30;1.33;;;1.32;;
66669;SDS011;53568;52.164;4.472;2023-07-31T06:08:55;1.33;;;1.32;;
66669;SDS011;53568;52.164;4.472;2023-07-31T06:11:21;1.33;;;1.29;;
66669;SDS011;53568;52.164;4.472;2023-07-31T06:13:47;1.56;;;1.49;;
66669;SDS011;53568;52.164;4.472;2023-07-31T06:16:14;1.67;;;1.56;;
66669;SDS011;53568;52.164;4.472;2023-07-31T06:18:40;1.92;;;1.76;;
66669;SDS011;53568;52.164;4.472;2023-07-31T06:21:06;2.22;;;1.96;;
66669;SDS011;53568;52.164;4.472;2023-07-31T06:23:33;2.25;;;1.97;;
66669;SDS011;53568;52.164;4.472;2023-07-31T06:25:58;2.46;;;2.11;;
66669;SDS011;53568;52.164;4.472;2023-07-31T06:28:27;2.95;;;2.45;;
66669;SDS011;53568;52.164;4.472;2023-07-31T06:30:54;2.76;;;2.27;;
66669;SDS011;53568;52.164;4.472;2023-07-31T06:33:20;2.70;;;2.25;;
66669;SDS011;53568;52.164;4.472;2023-07-31T06:35:45;2.87;;;2.41;;
66669;SDS011;53568;52.164;4.472;2023-07-31T06:38:11;2.61;;;2.19;;
66669;SDS011;53568;52.164;4.472;2023-07-31T06:40:36;2.37;;;2.01;;
66669;SDS011;53568;52.164;4.472;2023-07-31T06:43:02;2.73;;;2.35;;
66669;SDS011;53568;52.164;4.472;2023-07-31T06:45:36;2.86;;;2.48;;
66669;SDS011;53568;52.164;4.472;2023-07-31T06:48:03;2.86;;;2.44;;
66669;SDS011;53568;52.164;4.472;2023-07-31T06:50:29;3.15;;;2.70;;
66669;SDS011;53568;52.164;4.472;2023-07-31T06:52:55;3.43;;;2.93;;
66669;SDS011;53568;52.164;4.472;2023-07-31T06:55:22;3.91;;;3.35;;
66669;SDS011;53568;52.164;4.472;2023-07-31T06:57:48;3.47;;;2.98;;
66669;SDS011;53568;52.164;4.472;2023-07-31T07:00:16;4.00;;;3.45;;
66669;SDS011;53568;52.164;4.472;2023-07-31T07:02:43;4.23;;;3.64;;
66669;SDS011;53568;52.164;4.472;2023-07-31T07:05:08;4.39;;;3.75;;
66669;SDS011;53568;52.164;4.472;2023-07-31T07:07:35;4.43;;;3.77;;
66669;SDS011;53568;52.164;4.472;2023-07-31T07:10:01;4.45;;;3.79;;
66669;SDS011;53568;52.164;4.472;2023-07-31T07:12:29;4.29;;;3.64;;
66669;SDS011;53568;52.164;4.472;2023-07-31T07:14:55;4.64;;;3.95;;
66669;SDS011;53568;52.164;4.472;2023-07-31T07:17:20;4.64;;;3.88;;
66669;SDS011;53568;52.164;4.472;2023-07-31T07:19:47;4.12;;;3.56;;
66669;SDS011;53568;52.164;4.472;2023-07-31T07:22:13;4.18;;;3.66;;
66669;SDS011;53568;52.164;4.472;2023-07-31T07:24:38;3.63;;;3.19;;
66669;SDS011;53568;52.164;4.472;2023-07-31T07:27:04;4.15;;;3.56;;
66669;SDS011;53568;52.164;4.472;2023-07-31T07:29:29;4.09;;;3.49;;
66669;SDS011;53568;52.164;4.472;2023-07-31T07:31:55;3.68;;;3.19;;
66669;SDS011;53568;52.164;4.472;2023-07-31T07:34:25;3.95;;;3.33;;
66669;SDS011;53568;52.164;4.472;2023-07-31T07:36:52;4.24;;;3.51;;
66669;SDS011;53568;52.164;4.472;2023-07-31T07:39:17;4.00;;;3.35;;
66669;SDS011;53568;52.164;4.472;2023-07-31T07:41:43;4.17;;;3.46;;
66669;SDS011;53568;52.164;4.472;2023-07-31T07:44:08;5.07;;;4.03;;
66669;SDS011;53568;52.164;4.472;2023-07-31T07:46:34;4.80;;;3.85;;
66669;SDS011;53568;52.164;4.472;2023-07-31T07:48:59;5.01;;;4.02;;
66669;SDS011;53568;52.164;4.472;2023-07-31T07:51:25;5.04;;;3.98;;
66669;SDS011;53568;52.164;4.472;2023-07-31T07:53:51;4.90;;;3.96;;
66669;SDS011;53568;52.164;4.472;2023-07-31T07:56:16;4.74;;;3.82;;
66669;SDS011;53568;52.164;4.472;2023-07-31T07:58:42;5.13;;;4.07;;
66669;SDS011;53568;52.164;4.472;2023-07-31T08:01:08;5.06;;;3.93;;
66669;SDS011;53568;52.164;4.472;2023-07-31T08:03:33;4.85;;;3.80;;
66669;SDS011;53568;52.164;4.472;2023-07-31T08:05:59;4.16;;;3.31;;
66669;SDS011;53568;52.164;4.472;2023-07-31T08:08:26;4.68;;;3.69;;
66669;SDS011;53568;52.164;4.472;2023-07-31T08:10:53;5.29;;;4.14;;
66669;SDS011;53568;52.164;4.472;2023-07-31T08:13:18;5.27;;;3.99;;
66669;SDS011;53568;52.164;4.472;2023-07-31T08:15:44;5.96;;;4.41;;
66669;SDS011;53568;52.164;4.472;2023-07-31T08:18:10;5.83;;;4.27;;
66669;SDS011;53568;52.164;4.472;2023-07-31T08:20:38;6.61;;;4.83;;
66669;SDS011;53568;52.164;4.472;2023-07-31T08:23:04;6.15;;;4.58;;
66669;SDS011;53568;52.164;4.472;2023-07-31T08:25:29;7.16;;;5.20;;
66669;SDS011;53568;52.164;4.472;2023-07-31T08:27:55;7.24;;;5.26;;
66669;SDS011;53568;52.164;4.472;2023-07-31T08:30:21;6.86;;;4.92;;
66669;SDS011;53568;52.164;4.472;2023-07-31T08:32:46;7.03;;;4.93;;
66669;SDS011;53568;52.164;4.472;2023-07-31T08:35:12;7.17;;;5.08;;
66669;SDS011;53568;52.164;4.472;2023-07-31T08:37:38;6.24;;;4.40;;
66669;SDS011;53568;52.164;4.472;2023-07-31T08:40:04;7.98;;;5.43;;
66669;SDS011;53568;52.164;4.472;2023-07-31T08:42:31;7.98;;;5.41;;
66669;SDS011;53568;52.164;4.472;2023-07-31T08:44:57;7.58;;;5.26;;
66669;SDS011;53568;52.164;4.472;2023-07-31T08:47:26;7.05;;;4.99;;
66669;SDS011;53568;52.164;4.472;2023-07-31T08:49:53;7.75;;;5.50;;
66669;SDS011;53568;52.164;4.472;2023-07-31T08:52:20;6.95;;;4.93;;
66669;SDS011;53568;52.164;4.472;2023-07-31T08:54:46;6.63;;;4.73;;
66669;SDS011;53568;52.164;4.472;2023-07-31T08:57:11;7.36;;;5.18;;
66669;SDS011;53568;52.164;4.472;2023-07-31T08:59:38;8.23;;;5.66;;
66669;SDS011;53568;52.164;4.472;2023-07-31T09:02:08;7.60;;;5.22;;
66669;SDS011;53568;52.164;4.472;2023-07-31T09:04:34;7.89;;;5.41;;
66669;SDS011;53568;52.164;4.472;2023-07-31T09:07:00;7.36;;;4.99;;
66669;SDS011;53568;52.164;4.472;2023-07-31T09:09:31;7.68;;;5.26;;
66669;SDS011;53568;52.164;4.472;2023-07-31T09:11:57;7.91;;;5.51;;
66669;SDS011;53568;52.164;4.472;2023-07-31T09:14:24;7.48;;;5.16;;
66669;SDS011;53568;52.164;4.472;2023-07-31T09:16:51;7.87;;;5.32;;
66669;SDS011;53568;52.164;4.472;2023-07-31T09:19:29;8.56;;;5.72;;
66669;SDS011;53568;52.164;4.472;2023-07-31T09:22:02;7.61;;;5.20;;
66669;SDS011;53568;52.164;4.472;2023-07-31T09:24:29;7.87;;;5.39;;
66669;SDS011;53568;52.164;4.472;2023-07-31T09:26:57;6.55;;;4.65;;
66669;SDS011;53568;52.164;4.472;2023-07-31T09:29:24;7.09;;;5.09;;
66669;SDS011;53568;52.164;4.472;2023-07-31T09:31:51;7.56;;;5.33;;
66669;SDS011;53568;52.164;4.472;2023-07-31T09:34:19;7.16;;;5.02;;
66669;SDS011;53568;52.164;4.472;2023-07-31T09:36:49;6.45;;;4.72;;
66669;SDS011;53568;52.164;4.472;2023-07-31T09:39:16;5.97;;;4.31;;
66669;SDS011;53568;52.164;4.472;2023-07-31T09:41:44;6.12;;;4.53;;
66669;SDS011;53568;52.164;4.472;2023-07-31T09:44:12;5.78;;;4.40;;
66669;SDS011;53568;52.164;4.472;2023-07-31T09:46:37;5.51;;;4.22;;
66669;SDS011;53568;52.164;4.472;2023-07-31T09:49:04;5.60;;;4.11;;
66669;SDS011;53568;52.164;4.472;2023-07-31T09:51:31;5.68;;;4.19;;
66669;SDS011;53568;52.164;4.472;2023-07-31T09:53:56;6.66;;;4.84;;
66669;SDS011;53568;52.164;4.472;2023-07-31T09:56:22;6.56;;;4.77;;
66669;SDS011;53568;52.164;4.472;2023-07-31T09:58:49;6.48;;;4.80;;
66669;SDS011;53568;52.164;4.472;2023-07-31T10:01:15;5.96;;;4.49;;
66669;SDS011;53568;52.164;4.472;2023-07-31T10:03:40;6.27;;;4.71;;
66669;SDS011;53568;52.164;4.472;2023-07-31T10:06:09;6.68;;;4.89;;
66669;SDS011;53568;52.164;4.472;2023-07-31T10:08:36;6.45;;;4.71;;
66669;SDS011;53568;52.164;4.472;2023-07-31T10:11:03;6.38;;;4.72;;
66669;SDS011;53568;52.164;4.472;2023-07-31T10:13:31;6.52;;;4.88;;
66669;SDS011;53568;52.164;4.472;2023-07-31T10:15:58;6.39;;;4.94;;
66669;SDS011;53568;52.164;4.472;2023-07-31T10:18:28;5.92;;;4.60;;
66669;SDS011;53568;52.164;4.472;2023-07-31T10:20:54;5.50;;;4.29;;
66669;SDS011;53568;52.164;4.472;2023-07-31T10:23:21;4.95;;;3.94;;
66669;SDS011;53568;52.164;4.472;2023-07-31T10:25:49;5.55;;;4.28;;
66669;SDS011;53568;52.164;4.472;2023-07-31T10:28:18;5.35;;;4.10;;
66669;SDS011;53568;52.164;4.472;2023-07-31T10:30:45;5.66;;;4.34;;
66669;SDS011;53568;52.164;4.472;2023-07-31T10:33:10;5.61;;;4.31;;
66669;SDS011;53568;52.164;4.472;2023-07-31T10:35:36;5.77;;;4.40;;
66669;SDS011;53568;52.164;4.472;2023-07-31T10:38:11;5.16;;;3.97;;
66669;SDS011;53568;52.164;4.472;2023-07-31T10:40:38;5.44;;;4.30;;
66669;SDS011;53568;52.164;4.472;2023-07-31T10:43:05;5.92;;;4.65;;
66669;SDS011;53568;52.164;4.472;2023-07-31T10:48:03;5.92;;;4.61;;
66669;SDS011;53568;52.164;4.472;2023-07-31T10:50:38;5.20;;;4.09;;
66669;SDS011;53568;52.164;4.472;2023-07-31T10:53:10;5.11;;;4.13;;
66669;SDS011;53568;52.164;4.472;2023-07-31T10:56:07;5.07;;;3.99;;
66669;SDS011;53568;52.164;4.472;2023-07-31T10:58:36;4.87;;;3.87;;
66669;SDS011;53568;52.164;4.472;2023-07-31T11:01:03;5.12;;;4.14;;
66669;SDS011;53568;52.164;4.472;2023-07-31T11:03:43;5.02;;;4.02;;
66669;SDS011;53568;52.164;4.472;2023-07-31T11:06:11;4.92;;;3.93;;
66669;SDS011;53568;52.164;4.472;2023-07-31T11:08:41;5.53;;;4.35;;
66669;SDS011;53568;52.164;4.472;2023-07-31T11:11:18;4.89;;;3.70;;
66669;SDS011;53568;52.164;4.472;2023-07-31T11:13:49;5.17;;;4.00;;
66669;SDS011;53568;52.164;4.472;2023-07-31T11:16:20;5.40;;;4.15;;
66669;SDS011;53568;52.164;4.472;2023-07-31T11:18:50;5.67;;;4.37;;
66669;SDS011;53568;52.164;4.472;2023-07-31T11:21:19;5.16;;;4.00;;
66669;SDS011;53568;52.164;4.472;2023-07-31T11:23:49;5.19;;;3.98;;
66669;SDS011;53568;52.164;4.472;2023-07-31T11:26:17;4.56;;;3.60;;
66669;SDS011;53568;52.164;4.472;2023-07-31T11:28:46;4.66;;;3.79;;
66669;SDS011;53568;52.164;4.472;2023-07-31T11:31:12;4.53;;;3.78;;
66669;SDS011;53568;52.164;4.472;2023-07-31T11:33:38;3.96;;;3.32;;
66669;SDS011;53568;52.164;4.472;2023-07-31T11:36:04;4.05;;;3.32;;
66669;SDS011;53568;52.164;4.472;2023-07-31T11:38:30;4.23;;;3.36;;
66669;SDS011;53568;52.164;4.472;2023-07-31T11:40:58;4.59;;;3.61;;
66669;SDS011;53568;52.164;4.472;2023-07-31T11:43:28;4.38;;;3.39;;
66669;SDS011;53568;52.164;4.472;2023-07-31T11:45:56;4.24;;;3.33;;
66669;SDS011;53568;52.164;4.472;2023-07-31T11:48:23;4.38;;;3.40;;
66669;SDS011;53568;52.164;4.472;2023-07-31T11:50:52;4.05;;;3.20;;
66669;SDS011;53568;52.164;4.472;2023-07-31T11:56:03;4.27;;;3.31;;
66669;SDS011;53568;52.164;4.472;2023-07-31T11:58:30;3.78;;;3.00;;
66669;SDS011;53568;52.164;4.472;2023-07-31T12:00:58;4.06;;;3.23;;
66669;SDS011;53568;52.164;4.472;2023-07-31T12:03:25;4.41;;;3.44;;
66669;SDS011;53568;52.164;4.472;2023-07-31T12:05:52;4.70;;;3.57;;
66669;SDS011;53568;52.164;4.472;2023-07-31T12:08:20;4.25;;;3.23;;
66669;SDS011;53568;52.164;4.472;2023-07-31T12:10:49;4.32;;;3.32;;
66669;SDS011;53568;52.164;4.472;2023-07-31T12:13:23;4.04;;;3.13;;
66669;SDS011;53568;52.164;4.472;2023-07-31T12:15:58;4.20;;;3.23;;
66669;SDS011;53568;52.164;4.472;2023-07-31T12:18:26;4.03;;;3.16;;
66669;SDS011;53568;52.164;4.472;2023-07-31T12:20:56;4.26;;;3.35;;
66669;SDS011;53568;52.164;4.472;2023-07-31T12:23:27;3.37;;;2.71;;
66669;SDS011;53568;52.164;4.472;2023-07-31T12:26:04;3.42;;;2.78;;
66669;SDS011;53568;52.164;4.472;2023-07-31T12:28:40;3.24;;;2.63;;
66669;SDS011;53568;52.164;4.472;2023-07-31T12:31:16;3.71;;;3.02;;
66669;SDS011;53568;52.164;4.472;2023-07-31T12:33:44;3.91;;;3.18;;
66669;SDS011;53568;52.164;4.472;2023-07-31T12:36:12;3.43;;;2.77;;
66669;SDS011;53568;52.164;4.472;2023-07-31T12:38:39;3.71;;;3.01;;
66669;SDS011;53568;52.164;4.472;2023-07-31T12:41:05;4.33;;;3.46;;
66669;SDS011;53568;52.164;4.472;2023-07-31T12:43:34;4.23;;;3.34;;
66669;SDS011;53568;52.164;4.472;2023-07-31T12:46:01;3.98;;;3.19;;
66669;SDS011;53568;52.164;4.472;2023-07-31T12:48:27;3.57;;;2.95;;
66669;SDS011;53568;52.164;4.472;2023-07-31T12:50:52;3.77;;;3.14;;
66669;SDS011;53568;52.164;4.472;2023-07-31T12:53:18;3.33;;;2.72;;
66669;SDS011;53568;52.164;4.472;2023-07-31T12:55:43;3.32;;;2.66;;
66669;SDS011;53568;52.164;4.472;2023-07-31T12:58:09;3.43;;;2.72;;
66669;SDS011;53568;52.164;4.472;2023-07-31T13:00:34;3.16;;;2.51;;
66669;SDS011;53568;52.164;4.472;2023-07-31T13:03:00;2.47;;;1.99;;
66669;SDS011;53568;52.164;4.472;2023-07-31T13:05:27;2.81;;;2.22;;
66669;SDS011;53568;52.164;4.472;2023-07-31T13:07:53;2.83;;;2.22;;
66669;SDS011;53568;52.164;4.472;2023-07-31T13:10:19;2.51;;;1.98;;
66669;SDS011;53568;52.164;4.472;2023-07-31T13:12:45;2.57;;;2.02;;
66669;SDS011;53568;52.164;4.472;2023-07-31T13:15:11;2.61;;;2.01;;
66669;SDS011;53568;52.164;4.472;2023-07-31T13:17:37;2.22;;;1.70;;
66669;SDS011;53568;52.164;4.472;2023-07-31T13:20:03;2.45;;;1.86;;
66669;SDS011;53568;52.164;4.472;2023-07-31T13:22:29;2.02;;;1.58;;
66669;SDS011;53568;52.164;4.472;2023-07-31T13:24:54;1.77;;;1.38;;
66669;SDS011;53568;52.164;4.472;2023-07-31T13:27:20;2.18;;;1.72;;
66669;SDS011;53568;52.164;4.472;2023-07-31T13:29:50;2.37;;;1.87;;
66669;SDS011;53568;52.164;4.472;2023-07-31T13:32:17;2.64;;;2.13;;
66669;SDS011;53568;52.164;4.472;2023-07-31T13:34:44;2.60;;;2.18;;
66669;SDS011;53568;52.164;4.472;2023-07-31T13:37:10;2.93;;;2.57;;
66669;SDS011;53568;52.164;4.472;2023-07-31T13:39:36;3.15;;;2.76;;
66669;SDS011;53568;52.164;4.472;2023-07-31T13:42:02;3.06;;;2.67;;
66669;SDS011;53568;52.164;4.472;2023-07-31T13:44:28;3.35;;;2.87;;
66669;SDS011;53568;52.164;4.472;2023-07-31T13:46:54;3.42;;;2.94;;
66669;SDS011;53568;52.164;4.472;2023-07-31T13:49:20;3.94;;;3.24;;
66669;SDS011;53568;52.164;4.472;2023-07-31T13:51:45;4.21;;;3.37;;
66669;SDS011;53568;52.164;4.472;2023-07-31T13:54:11;4.17;;;3.34;;
66669;SDS011;53568;52.164;4.472;2023-07-31T13:56:37;4.18;;;3.38;;
66669;SDS011;53568;52.164;4.472;2023-07-31T13:59:03;3.49;;;2.85;;
66669;SDS011;53568;52.164;4.472;2023-07-31T14:01:29;3.60;;;3.05;;
66669;SDS011;53568;52.164;4.472;2023-07-31T14:03:55;3.66;;;3.04;;
66669;SDS011;53568;52.164;4.472;2023-07-31T14:06:20;3.85;;;3.09;;
66669;SDS011;53568;52.164;4.472;2023-07-31T14:08:46;4.07;;;3.21;;
66669;SDS011;53568;52.164;4.472;2023-07-31T14:11:12;3.81;;;2.98;;
66669;SDS011;53568;52.164;4.472;2023-07-31T14:13:37;3.94;;;3.03;;
66669;SDS011;53568;52.164;4.472;2023-07-31T14:16:03;3.68;;;2.84;;
66669;SDS011;53568;52.164;4.472;2023-07-31T14:18:28;3.59;;;2.76;;
66669;SDS011;53568;52.164;4.472;2023-07-31T14:20:54;2.93;;;2.28;;
66669;SDS011;53568;52.164;4.472;2023-07-31T14:23:19;3.02;;;2.37;;
66669;SDS011;53568;52.164;4.472;2023-07-31T14:25:45;3.34;;;2.58;;
66669;SDS011;53568;52.164;4.472;2023-07-31T14:28:11;3.04;;;2.32;;
66669;SDS011;53568;52.164;4.472;2023-07-31T14:30:37;2.73;;;2.03;;
66669;SDS011;53568;52.164;4.472;2023-07-31T14:33:02;2.99;;;2.21;;
66669;SDS011;53568;52.164;4.472;2023-07-31T14:35:28;2.84;;;2.09;;
66669;SDS011;53568;52.164;4.472;2023-07-31T14:37:53;2.83;;;2.11;;
66669;SDS011;53568;52.164;4.472;2023-07-31T14:40:19;2.98;;;2.19;;
66669;SDS011;53568;52.164;4.472;2023-07-31T14:42:44;3.05;;;2.27;;
66669;SDS011;53568;52.164;4.472;2023-07-31T14:45:10;2.90;;;2.16;;
66669;SDS011;53568;52.164;4.472;2023-07-31T14:47:36;2.55;;;1.90;;
66669;SDS011;53568;52.164;4.472;2023-07-31T14:50:01;2.45;;;1.81;;
66669;SDS011;53568;52.164;4.472;2023-07-31T14:52:28;2.17;;;1.61;;